createdAt,value
2018-04-13T00:04:18.439Z,99808.33
2018-04-13T00:09:13.573Z,99803.85
2018-04-13T00:14:08.699Z,99811.05
2018-04-13T00:19:03.820Z,99795.73
2018-04-13T00:23:58.186Z,99810.63
2018-04-13T00:28:52.557Z,99807.56
2018-04-13T00:33:46.899Z,99810.53
2018-04-13T00:38:41.264Z,99820.43
2018-04-13T00:43:35.652Z,99814.25
2018-04-13T00:48:30.006Z,99820.78
2018-04-13T00:53:30.461Z,99830.63
2018-04-13T00:58:25.640Z,99837.38
2018-04-13T01:03:20.028Z,99838.22
2018-04-13T01:08:14.389Z,99843.39
2018-04-13T01:13:09.521Z,99844.23
2018-04-13T01:18:04.638Z,99844.65
2018-04-13T01:22:59.814Z,99853.45
2018-04-13T01:27:54.172Z,99850.69
2018-04-13T01:32:48.715Z,99849.17
2018-04-13T01:37:43.058Z,99839.81
2018-04-13T01:42:38.179Z,99844.58
2018-04-13T01:47:33.300Z,99839.73
2018-04-13T01:52:28.598Z,99848.09
2018-04-13T01:57:22.969Z,99843.02
2018-04-13T02:02:17.332Z,99847.25
2018-04-13T02:07:12.455Z,99849.59
2018-04-13T02:12:07.581Z,99852.50
2018-04-13T02:17:02.476Z,99854.18
2018-04-13T02:21:56.861Z,99857.15
2018-04-13T02:26:51.236Z,99858.83
2018-04-13T02:31:45.620Z,99863.64
2018-04-13T02:36:39.977Z,99863.87
2018-04-13T02:41:34.086Z,99857.58
2018-04-13T02:46:29.360Z,99866.13
2018-04-13T02:51:23.722Z,99868.89
2018-04-13T02:56:18.916Z,99870.02
2018-04-13T03:01:13.297Z,99870.74
2018-04-13T03:06:07.658Z,99868.43
2018-04-13T03:11:01.881Z,99867.47
2018-04-13T03:15:56.021Z,99874.72
2018-04-13T03:20:51.871Z,99865.45
2018-04-13T03:25:46.222Z,99867.98
2018-04-13T03:30:40.595Z,99869.99
2018-04-13T03:35:35.701Z,99872.85
2018-04-13T03:40:30.837Z,99878.78
2018-04-13T03:45:25.255Z,99881.94
2018-04-13T03:50:19.621Z,99879.41
2018-04-13T03:55:14.834Z,99886.33
2018-04-13T04:00:09.196Z,99890.55
2018-04-13T04:05:03.542Z,99898.80
2018-04-13T04:09:58.664Z,99900.91
2018-04-13T04:14:53.025Z,99897.28
2018-04-13T04:20:04.726Z,99906.81
2018-04-13T04:25:16.179Z,99914.84
2018-04-13T04:30:10.533Z,99917.16
2018-04-13T04:35:04.882Z,99919.33
2018-04-13T04:40:00.867Z,99928.44
2018-04-13T04:44:55.295Z,99938.88
2018-04-13T04:49:49.649Z,99938.20
2018-04-13T04:54:44.778Z,99949.30
2018-04-13T04:59:39.184Z,99959.59
2018-04-13T05:04:33.645Z,99966.72
2018-04-13T05:09:28.079Z,99975.14
2018-04-13T05:14:23.198Z,99983.24
2018-04-13T05:19:17.757Z,99988.30
2018-04-13T05:24:12.106Z,99996.83
2018-04-13T05:29:07.260Z,100002.48
2018-04-13T05:34:01.626Z,100017.41
2018-04-13T05:38:56.755Z,100024.28
2018-04-13T05:43:51.904Z,100032.98
2018-04-13T05:48:46.265Z,100040.56
2018-04-13T05:53:41.417Z,100050.64
2018-04-13T05:58:35.916Z,100055.20
2018-04-13T06:03:30.311Z,100061.93
2018-04-13T06:08:25.512Z,100055.88
2018-04-13T06:13:20.702Z,100050.27
2018-04-13T06:18:15.152Z,100039.66
2018-04-13T06:23:09.613Z,100041.56
2018-04-13T06:28:03.984Z,100034.89
2018-04-13T06:32:58.444Z,100041.48
2018-04-13T06:37:53.069Z,100049.75
2018-04-13T06:42:47.926Z,100057.73
2018-04-13T06:47:42.404Z,100069.66
2018-04-13T06:52:37.736Z,100075.97
2018-04-13T06:57:32.892Z,100082.16
2018-04-13T07:02:27.089Z,100078.21
2018-04-13T07:07:21.748Z,100088.48
2018-04-13T07:12:16.149Z,100102.63
2018-04-13T07:17:12.003Z,100090.20
2018-04-13T07:22:07.128Z,100087.80
2018-04-13T07:27:02.374Z,100076.09
2018-04-13T07:31:57.496Z,100074.22
2018-04-13T07:36:51.947Z,100075.17
2018-04-13T07:41:46.435Z,100082.04
2018-04-13T07:46:40.822Z,100082.61
2018-04-13T07:51:35.189Z,100100.89
2018-04-13T07:56:30.342Z,100108.50
2018-04-13T08:01:24.714Z,100116.16
2018-04-13T08:06:19.870Z,100127.59
2018-04-13T08:11:14.249Z,100120.70
2018-04-13T08:16:08.612Z,100130.00
2018-04-13T08:21:03.053Z,100127.54
2018-04-13T08:25:57.504Z,100126.34
2018-04-13T08:30:51.887Z,100120.68
2018-04-13T08:35:46.343Z,100113.34
2018-04-13T08:40:42.398Z,100125.08
2018-04-13T08:45:37.595Z,100122.20
2018-04-13T08:50:32.200Z,100128.14
2018-04-13T08:55:27.022Z,100131.68
2018-04-13T09:00:21.393Z,100139.54
2018-04-13T09:05:15.763Z,100151.87
2018-04-13T09:10:10.232Z,100155.66
2018-04-13T09:15:04.609Z,100166.70
2018-04-13T09:19:58.988Z,100174.08
2018-04-13T09:24:53.510Z,100182.48
2018-04-13T09:29:48.004Z,100179.19
2018-04-13T09:34:42.737Z,100180.45
2018-04-13T09:39:37.114Z,100181.61
2018-04-13T09:44:31.491Z,100184.86
2018-04-13T09:49:25.864Z,100188.30
2018-04-13T09:54:20.383Z,100190.58
2018-04-13T09:59:15.536Z,100190.78
2018-04-13T10:04:13.768Z,100194.20
2018-04-13T10:09:08.941Z,100203.17
2018-04-13T10:14:03.435Z,100211.53
2018-04-13T10:18:58.587Z,100214.88
2018-04-13T10:23:53.133Z,100223.84
2018-04-13T10:28:47.509Z,100228.38
2018-04-13T10:33:41.885Z,100234.46
2018-04-13T10:38:37.352Z,100239.11
2018-04-13T10:43:31.505Z,100247.18
2018-04-13T10:48:25.623Z,100252.77
2018-04-13T10:53:20.917Z,100251.77
2018-04-13T10:58:15.322Z,100256.79
2018-04-13T11:03:10.472Z,100259.12
2018-04-13T11:08:05.903Z,100262.12
2018-04-13T11:13:00.261Z,100271.16
2018-04-13T11:17:55.391Z,100274.01
2018-04-13T11:22:50.775Z,100290.48
2018-04-13T11:27:45.718Z,100290.23
2018-04-13T11:32:41.105Z,100288.75
2018-04-13T11:37:35.570Z,100287.91
2018-04-13T11:42:29.942Z,100284.26
2018-04-13T11:47:24.298Z,100288.17
2018-04-13T11:52:18.806Z,100289.98
2018-04-13T11:57:13.294Z,100292.30
2018-04-13T12:02:07.477Z,100303.56
2018-04-13T12:07:02.369Z,100303.74
2018-04-13T12:11:56.755Z,100312.31
2018-04-13T12:16:51.180Z,100326.89
2018-04-13T12:21:46.552Z,100336.81
2018-04-13T12:26:41.047Z,100336.52
2018-04-13T12:31:35.181Z,100351.08
2018-04-13T12:36:29.615Z,100354.42
2018-04-13T12:41:24.753Z,100356.28
2018-04-13T12:46:19.881Z,100359.44
2018-04-13T12:51:14.248Z,100361.89
2018-04-13T12:56:08.680Z,100357.62
2018-04-13T13:01:03.153Z,100362.61
2018-04-13T13:05:57.665Z,100369.81
2018-04-13T13:10:52.050Z,100368.19
2018-04-13T13:15:46.600Z,100377.91
2018-04-13T13:20:41.485Z,100380.78
2018-04-13T13:25:35.848Z,100381.67
2018-04-13T13:30:30.205Z,100385.51
2018-04-13T13:35:25.365Z,100389.27
2018-04-13T13:40:19.711Z,100389.72
2018-04-13T13:45:14.847Z,100393.16
2018-04-13T13:50:09.976Z,100400.98
2018-04-13T13:55:05.110Z,100401.97
2018-04-13T13:59:59.541Z,100408.19
2018-04-13T14:04:53.940Z,100410.80
2018-04-13T14:09:48.369Z,100414.77
2018-04-13T14:14:42.738Z,100416.80
2018-04-13T14:19:38.831Z,100419.28
2018-04-13T14:24:33.397Z,100422.59
2018-04-13T14:29:27.771Z,100428.13
2018-04-13T14:34:22.178Z,100427.94
2018-04-13T14:39:16.521Z,100433.75
2018-04-13T14:44:11.159Z,100436.87
2018-04-13T14:49:05.698Z,100442.95
2018-04-13T14:54:02.309Z,100451.58
2018-04-13T14:58:57.926Z,100455.44
2018-04-13T15:03:52.410Z,100464.27
2018-04-13T15:08:46.771Z,100474.88
2018-04-13T15:13:41.910Z,100481.28
2018-04-13T15:18:37.315Z,100494.14
2018-04-13T15:23:32.178Z,100506.38
2018-04-13T15:28:27.020Z,100499.95
2018-04-13T15:33:21.421Z,100516.62
2018-04-13T15:38:15.826Z,100514.91
2018-04-13T15:43:10.212Z,100520.61
2018-04-13T15:48:04.907Z,100524.32
2018-04-13T15:52:59.259Z,100525.30
2018-04-13T15:57:54.436Z,100533.81
2018-04-13T16:02:48.787Z,100535.91
2018-04-13T16:07:43.999Z,100547.39
2018-04-13T16:12:38.391Z,100551.88
2018-04-13T16:17:33.039Z,100555.28
2018-04-13T16:22:27.430Z,100558.86
2018-04-13T16:27:22.925Z,100569.38
2018-04-13T16:32:17.548Z,100570.13
2018-04-13T16:37:11.891Z,100576.44
2018-04-13T16:42:06.438Z,100574.94
2018-04-13T16:47:00.888Z,100575.98
2018-04-13T16:51:55.255Z,100568.52
2018-04-13T16:56:49.850Z,100576.33
2018-04-13T17:01:44.230Z,100580.20
2018-04-13T17:06:38.971Z,100582.15
2018-04-13T17:11:33.349Z,100584.84
2018-04-13T17:16:27.830Z,100591.48
2018-04-13T17:32:15.649Z,100615.21
2018-04-13T17:48:13.265Z,100635.84
2018-04-13T17:53:17.304Z,100648.62
2018-04-13T17:58:11.866Z,100649.45
2018-04-13T18:03:06.266Z,100654.98
2018-04-13T18:08:00.656Z,100664.96
2018-04-13T18:13:02.671Z,100674.19
2018-04-13T18:17:57.929Z,100671.95
2018-04-13T18:22:52.463Z,100679.02
2018-04-13T18:27:50.782Z,100689.01
2018-04-13T18:32:45.604Z,100697.73
2018-04-13T18:37:41.444Z,100701.61
2018-04-13T18:42:36.235Z,100716.80
2018-04-13T18:47:32.448Z,100729.94
2018-04-13T18:52:27.729Z,100732.61
2018-04-13T18:57:22.274Z,100738.76
2018-04-13T19:02:17.475Z,100739.47
2018-04-13T19:07:11.839Z,100742.92
2018-04-13T19:12:06.209Z,100747.73
2018-04-13T19:17:00.676Z,100753.78
2018-04-13T19:21:55.067Z,100755.50
2018-04-13T19:26:49.469Z,100755.93
2018-04-13T19:31:43.835Z,100762.52
2018-04-13T19:36:38.966Z,100765.55
2018-04-13T19:41:33.325Z,100767.70
2018-04-13T19:46:27.971Z,100767.19
2018-04-13T19:51:23.609Z,100768.52
2018-04-13T19:56:18.208Z,100774.41
2018-04-13T20:01:13.929Z,100782.05
2018-04-13T20:06:09.154Z,100783.70
2018-04-13T20:11:04.567Z,100783.15
2018-04-13T20:15:59.146Z,100785.81
2018-04-13T20:20:53.553Z,100789.39
2018-04-13T20:25:48.150Z,100795.94
2018-04-13T20:30:42.582Z,100800.92
2018-04-13T20:35:38.287Z,100801.08
2018-04-13T20:40:32.687Z,100802.17
2018-04-13T20:45:27.131Z,100807.75
2018-04-13T20:50:21.538Z,100811.44
2018-04-13T20:55:16.691Z,100802.92
2018-04-13T21:00:10.874Z,100806.96
2018-04-13T21:05:06.121Z,100820.41
2018-04-13T21:10:00.655Z,100824.08
2018-04-13T21:14:55.085Z,100826.78
2018-04-13T21:19:49.501Z,100833.08
2018-04-13T21:24:44.168Z,100829.73
2018-04-13T21:29:38.857Z,100836.25
2018-04-13T21:34:33.290Z,100832.45
2018-04-13T21:39:27.697Z,100839.83
2018-04-13T21:44:22.176Z,100834.97
2018-04-13T21:49:16.572Z,100841.42
2018-04-13T21:54:11.321Z,100850.86
2018-04-13T21:59:05.926Z,100857.81
2018-04-13T22:04:00.324Z,100854.73
2018-04-13T22:08:54.731Z,100854.52
2018-04-13T22:13:49.402Z,100856.92
2018-04-13T22:18:43.981Z,100867.45
2018-04-13T22:23:39.114Z,100863.42
2018-04-13T22:28:34.481Z,100874.74
2018-04-13T22:33:28.875Z,100879.63
2018-04-13T22:38:23.217Z,100887.55
2018-04-13T22:43:17.650Z,100893.26
2018-04-13T22:48:12.916Z,100895.81
2018-04-13T22:53:07.427Z,100892.80
2018-04-13T22:58:02.099Z,100889.38
2018-04-13T23:02:56.598Z,100893.78
2018-04-13T23:07:51.068Z,100893.28
2018-04-13T23:12:46.685Z,100899.36
2018-04-13T23:17:41.259Z,100906.77
2018-04-13T23:22:39.180Z,100910.77
2018-04-13T23:27:33.571Z,100919.30
2018-04-13T23:32:28.350Z,100920.09
2018-04-13T23:37:22.876Z,100925.20
2018-04-13T23:42:17.479Z,100935.97
2018-04-13T23:47:11.936Z,100929.72
2018-04-13T23:52:06.293Z,100933.31
2018-04-13T23:57:00.723Z,100940.48
